sensor_id;sensor_type;location;lat;lon;timestamp;temperature;humidity
38131;DHT22;23947;51.894;4.622;2023-02-15T00:01:13;3.20;1.40
38131;DHT22;23947;51.894;4.622;2023-02-15T00:03:39;3.20;1.40
38131;DHT22;23947;51.894;4.622;2023-02-15T00:06:04;3.20;1.40
38131;DHT22;23947;51.894;4.622;2023-02-15T00:08:30;3.20;1.40
38131;DHT22;23947;51.894;4.622;2023-02-15T00:11:03;3.20;1.40
38131;DHT22;23947;51.894;4.622;2023-02-15T00:13:28;3.10;1.40
38131;DHT22;23947;51.894;4.622;2023-02-15T00:15:54;3.10;1.40
38131;DHT22;23947;51.894;4.622;2023-02-15T00:18:19;3.10;1.40
38131;DHT22;23947;51.894;4.622;2023-02-15T00:20:45;3.10;1.40
38131;DHT22;23947;51.894;4.622;2023-02-15T00:23:10;3.00;1.40
38131;DHT22;23947;51.894;4.622;2023-02-15T00:25:36;3.00;1.40
38131;DHT22;23947;51.894;4.622;2023-02-15T00:28:01;3.00;1.40
38131;DHT22;23947;51.894;4.622;2023-02-15T00:30:27;3.00;1.40
38131;DHT22;23947;51.894;4.622;2023-02-15T00:32:52;3.00;1.40
38131;DHT22;23947;51.894;4.622;2023-02-15T00:35:18;3.00;1.40
38131;DHT22;23947;51.894;4.622;2023-02-15T00:37:43;2.90;1.40
38131;DHT22;23947;51.894;4.622;2023-02-15T00:40:09;2.90;1.40
38131;DHT22;23947;51.894;4.622;2023-02-15T00:42:34;2.90;1.40
38131;DHT22;23947;51.894;4.622;2023-02-15T00:45:00;2.90;1.40
38131;DHT22;23947;51.894;4.622;2023-02-15T00:47:25;2.90;1.40
38131;DHT22;23947;51.894;4.622;2023-02-15T00:49:51;2.90;1.40
38131;DHT22;23947;51.894;4.622;2023-02-15T00:52:16;3.00;1.40
38131;DHT22;23947;51.894;4.622;2023-02-15T00:54:42;3.00;1.40
38131;DHT22;23947;51.894;4.622;2023-02-15T00:57:07;3.00;1.40
38131;DHT22;23947;51.894;4.622;2023-02-15T00:59:33;3.00;1.40
38131;DHT22;23947;51.894;4.622;2023-02-15T01:01:58;2.90;1.40
38131;DHT22;23947;51.894;4.622;2023-02-15T01:04:24;2.80;1.40
38131;DHT22;23947;51.894;4.622;2023-02-15T01:06:49;2.80;1.40
38131;DHT22;23947;51.894;4.622;2023-02-15T01:09:15;2.70;1.40
38131;DHT22;23947;51.894;4.622;2023-02-15T01:11:40;2.70;1.40
38131;DHT22;23947;51.894;4.622;2023-02-15T01:14:06;2.60;1.40
38131;DHT22;23947;51.894;4.622;2023-02-15T01:16:31;2.60;1.40
38131;DHT22;23947;51.894;4.622;2023-02-15T01:18:57;2.50;1.40
38131;DHT22;23947;51.894;4.622;2023-02-15T01:21:23;2.60;1.40
38131;DHT22;23947;51.894;4.622;2023-02-15T01:23:49;2.50;1.40
38131;DHT22;23947;51.894;4.622;2023-02-15T01:26:14;2.60;1.40
38131;DHT22;23947;51.894;4.622;2023-02-15T01:28:40;2.60;1.40
38131;DHT22;23947;51.894;4.622;2023-02-15T01:31:06;2.50;1.40
38131;DHT22;23947;51.894;4.622;2023-02-15T01:33:32;2.50;1.40
38131;DHT22;23947;51.894;4.622;2023-02-15T01:35:58;2.40;1.40
38131;DHT22;23947;51.894;4.622;2023-02-15T01:38:23;2.40;1.40
38131;DHT22;23947;51.894;4.622;2023-02-15T01:40:53;2.40;1.40
38131;DHT22;23947;51.894;4.622;2023-02-15T01:43:18;2.40;1.40
38131;DHT22;23947;51.894;4.622;2023-02-15T01:45:45;2.40;1.40
38131;DHT22;23947;51.894;4.622;2023-02-15T01:48:17;2.30;1.40
38131;DHT22;23947;51.894;4.622;2023-02-15T01:50:44;2.30;1.40
38131;DHT22;23947;51.894;4.622;2023-02-15T01:55:41;2.20;1.40
38131;DHT22;23947;51.894;4.622;2023-02-15T01:58:09;2.20;1.40
38131;DHT22;23947;51.894;4.622;2023-02-15T02:00:34;2.10;1.40
38131;DHT22;23947;51.894;4.622;2023-02-15T02:03:00;2.10;1.40
38131;DHT22;23947;51.894;4.622;2023-02-15T02:05:26;2.10;1.40
38131;DHT22;23947;51.894;4.622;2023-02-15T02:07:53;2.10;1.40
38131;DHT22;23947;51.894;4.622;2023-02-15T02:10:21;2.00;1.40
38131;DHT22;23947;51.894;4.622;2023-02-15T02:12:47;2.00;1.40
38131;DHT22;23947;51.894;4.622;2023-02-15T02:15:14;2.10;1.40
38131;DHT22;23947;51.894;4.622;2023-02-15T02:17:42;2.10;1.40
38131;DHT22;23947;51.894;4.622;2023-02-15T02:27:50;2.00;1.40
38131;DHT22;23947;51.894;4.622;2023-02-15T02:45:47;1.90;1.40
38131;DHT22;23947;51.894;4.622;2023-02-15T02:48:16;1.90;1.40
38131;DHT22;23947;51.894;4.622;2023-02-15T02:50:44;1.90;1.40
38131;DHT22;23947;51.894;4.622;2023-02-15T02:53:09;1.80;1.40
38131;DHT22;23947;51.894;4.622;2023-02-15T02:55:46;1.80;1.40
38131;DHT22;23947;51.894;4.622;2023-02-15T03:06:06;1.60;1.40
38131;DHT22;23947;51.894;4.622;2023-02-15T03:08:36;1.60;1.40
38131;DHT22;23947;51.894;4.622;2023-02-15T03:11:02;1.60;1.40
38131;DHT22;23947;51.894;4.622;2023-02-15T03:13:28;1.60;1.40
38131;DHT22;23947;51.894;4.622;2023-02-15T03:15:54;1.60;1.40
38131;DHT22;23947;51.894;4.622;2023-02-15T03:18:42;1.60;1.40
38131;DHT22;23947;51.894;4.622;2023-02-15T03:21:08;1.60;1.40
38131;DHT22;23947;51.894;4.622;2023-02-15T03:23:34;1.60;1.40
38131;DHT22;23947;51.894;4.622;2023-02-15T03:26:02;1.50;1.40
38131;DHT22;23947;51.894;4.622;2023-02-15T03:28:29;1.50;1.40
38131;DHT22;23947;51.894;4.622;2023-02-15T03:30:57;1.60;1.40
38131;DHT22;23947;51.894;4.622;2023-02-15T03:33:25;1.50;1.40
38131;DHT22;23947;51.894;4.622;2023-02-15T03:38:25;1.50;1.40
38131;DHT22;23947;51.894;4.622;2023-02-15T03:40:54;1.50;1.40
38131;DHT22;23947;51.894;4.622;2023-02-15T03:43:55;1.60;1.40
38131;DHT22;23947;51.894;4.622;2023-02-15T03:49:01;1.60;1.40
38131;DHT22;23947;51.894;4.622;2023-02-15T03:51:29;1.70;1.40
38131;DHT22;23947;51.894;4.622;2023-02-15T03:54:02;1.70;1.40
38131;DHT22;23947;51.894;4.622;2023-02-15T03:56:28;1.80;1.40
38131;DHT22;23947;51.894;4.622;2023-02-15T03:58:54;1.70;1.40
38131;DHT22;23947;51.894;4.622;2023-02-15T04:07:01;1.80;1.40
38131;DHT22;23947;51.894;4.622;2023-02-15T04:09:27;1.90;1.40
38131;DHT22;23947;51.894;4.622;2023-02-15T04:12:11;1.90;1.40
38131;DHT22;23947;51.894;4.622;2023-02-15T04:14:36;2.00;1.40
38131;DHT22;23947;51.894;4.622;2023-02-15T04:17:21;2.10;1.40
38131;DHT22;23947;51.894;4.622;2023-02-15T04:19:46;2.10;1.40
38131;DHT22;23947;51.894;4.622;2023-02-15T04:22:30;2.10;1.40
38131;DHT22;23947;51.894;4.622;2023-02-15T04:25:14;2.10;1.40
38131;DHT22;23947;51.894;4.622;2023-02-15T04:27:42;2.10;1.40
38131;DHT22;23947;51.894;4.622;2023-02-15T04:30:08;2.10;1.40
38131;DHT22;23947;51.894;4.622;2023-02-15T04:32:34;2.00;1.40
38131;DHT22;23947;51.894;4.622;2023-02-15T04:35:00;1.90;1.40
38131;DHT22;23947;51.894;4.622;2023-02-15T04:37:26;1.90;1.40
38131;DHT22;23947;51.894;4.622;2023-02-15T04:39:51;2.00;1.40
38131;DHT22;23947;51.894;4.622;2023-02-15T04:42:17;1.90;1.40
38131;DHT22;23947;51.894;4.622;2023-02-15T04:44:42;2.00;1.40
38131;DHT22;23947;51.894;4.622;2023-02-15T04:47:08;2.00;1.40
38131;DHT22;23947;51.894;4.622;2023-02-15T04:49:33;1.90;1.40
38131;DHT22;23947;51.894;4.622;2023-02-15T04:51:59;2.00;1.40
38131;DHT22;23947;51.894;4.622;2023-02-15T04:54:24;2.00;1.40
38131;DHT22;23947;51.894;4.622;2023-02-15T04:56:50;2.00;1.40
38131;DHT22;23947;51.894;4.622;2023-02-15T04:59:16;2.00;1.40
38131;DHT22;23947;51.894;4.622;2023-02-15T05:01:41;2.00;1.40
38131;DHT22;23947;51.894;4.622;2023-02-15T05:04:07;2.00;1.40
38131;DHT22;23947;51.894;4.622;2023-02-15T05:06:32;2.10;1.40
38131;DHT22;23947;51.894;4.622;2023-02-15T05:08:58;2.10;1.40
38131;DHT22;23947;51.894;4.622;2023-02-15T05:11:24;2.10;1.40
38131;DHT22;23947;51.894;4.622;2023-02-15T05:13:50;2.10;1.40
38131;DHT22;23947;51.894;4.622;2023-02-15T05:16:16;2.10;1.40
38131;DHT22;23947;51.894;4.622;2023-02-15T05:18:42;2.10;1.40
38131;DHT22;23947;51.894;4.622;2023-02-15T05:21:07;2.10;1.40
38131;DHT22;23947;51.894;4.622;2023-02-15T05:23:33;2.10;1.40
38131;DHT22;23947;51.894;4.622;2023-02-15T05:25:58;2.10;1.40
38131;DHT22;23947;51.894;4.622;2023-02-15T05:28:43;2.10;1.40
38131;DHT22;23947;51.894;4.622;2023-02-15T05:31:12;2.10;1.40
38131;DHT22;23947;51.894;4.622;2023-02-15T05:33:38;2.10;1.40
38131;DHT22;23947;51.894;4.622;2023-02-15T05:36:05;2.10;1.40
38131;DHT22;23947;51.894;4.622;2023-02-15T05:38:31;2.10;1.40
38131;DHT22;23947;51.894;4.622;2023-02-15T05:40:56;2.00;1.40
38131;DHT22;23947;51.894;4.622;2023-02-15T05:43:22;2.10;1.40
38131;DHT22;23947;51.894;4.622;2023-02-15T05:45:49;2.10;1.40
38131;DHT22;23947;51.894;4.622;2023-02-15T05:48:14;2.10;1.40
38131;DHT22;23947;51.894;4.622;2023-02-15T05:50:40;2.10;1.40
38131;DHT22;23947;51.894;4.622;2023-02-15T05:53:06;2.00;1.40
38131;DHT22;23947;51.894;4.622;2023-02-15T05:55:31;2.00;1.40
38131;DHT22;23947;51.894;4.622;2023-02-15T05:57:57;1.90;1.40
38131;DHT22;23947;51.894;4.622;2023-02-15T06:00:22;1.90;1.40
38131;DHT22;23947;51.894;4.622;2023-02-15T06:02:48;1.80;1.40
38131;DHT22;23947;51.894;4.622;2023-02-15T06:05:14;1.80;1.40
38131;DHT22;23947;51.894;4.622;2023-02-15T06:07:42;1.80;1.40
38131;DHT22;23947;51.894;4.622;2023-02-15T06:10:07;1.70;1.40
38131;DHT22;23947;51.894;4.622;2023-02-15T06:12:33;1.70;1.40
38131;DHT22;23947;51.894;4.622;2023-02-15T06:15:00;1.70;1.40
38131;DHT22;23947;51.894;4.622;2023-02-15T06:17:26;1.60;1.40
38131;DHT22;23947;51.894;4.622;2023-02-15T06:19:51;1.60;1.40
38131;DHT22;23947;51.894;4.622;2023-02-15T06:22:17;1.60;1.40
38131;DHT22;23947;51.894;4.622;2023-02-15T06:24:42;1.60;1.40
38131;DHT22;23947;51.894;4.622;2023-02-15T06:27:09;1.60;1.40
38131;DHT22;23947;51.894;4.622;2023-02-15T06:29:35;1.50;1.40
38131;DHT22;23947;51.894;4.622;2023-02-15T06:32:00;1.50;1.40
38131;DHT22;23947;51.894;4.622;2023-02-15T06:34:26;1.50;1.40
38131;DHT22;23947;51.894;4.622;2023-02-15T06:36:51;1.50;1.40
38131;DHT22;23947;51.894;4.622;2023-02-15T06:39:17;1.60;1.40
38131;DHT22;23947;51.894;4.622;2023-02-15T06:41:42;1.60;1.40
38131;DHT22;23947;51.894;4.622;2023-02-15T06:44:08;1.70;1.40
38131;DHT22;23947;51.894;4.622;2023-02-15T06:46:36;1.70;1.40
38131;DHT22;23947;51.894;4.622;2023-02-15T06:49:11;1.70;1.40
38131;DHT22;23947;51.894;4.622;2023-02-15T06:51:37;1.80;1.40
38131;DHT22;23947;51.894;4.622;2023-02-15T06:54:02;1.80;1.40
38131;DHT22;23947;51.894;4.622;2023-02-15T06:56:28;1.80;1.40
38131;DHT22;23947;51.894;4.622;2023-02-15T06:58:53;1.90;1.40
38131;DHT22;23947;51.894;4.622;2023-02-15T07:01:19;1.90;1.40
38131;DHT22;23947;51.894;4.622;2023-02-15T07:03:44;1.90;1.40
38131;DHT22;23947;51.894;4.622;2023-02-15T07:06:10;1.80;1.40
38131;DHT22;23947;51.894;4.622;2023-02-15T07:08:37;1.90;1.40
38131;DHT22;23947;51.894;4.622;2023-02-15T07:11:02;1.90;1.40
38131;DHT22;23947;51.894;4.622;2023-02-15T07:13:47;1.90;1.40
38131;DHT22;23947;51.894;4.622;2023-02-15T07:16:13;1.90;1.40
38131;DHT22;23947;51.894;4.622;2023-02-15T07:18:39;1.90;1.40
38131;DHT22;23947;51.894;4.622;2023-02-15T07:21:05;1.90;1.40
38131;DHT22;23947;51.894;4.622;2023-02-15T07:23:34;2.00;1.40
38131;DHT22;23947;51.894;4.622;2023-02-15T07:26:00;2.00;1.40
38131;DHT22;23947;51.894;4.622;2023-02-15T07:28:27;2.00;1.40
38131;DHT22;23947;51.894;4.622;2023-02-15T07:30:52;2.00;1.40
38131;DHT22;23947;51.894;4.622;2023-02-15T07:33:18;2.00;1.40
38131;DHT22;23947;51.894;4.622;2023-02-15T07:35:49;2.00;1.40
38131;DHT22;23947;51.894;4.622;2023-02-15T07:38:15;2.00;1.40
38131;DHT22;23947;51.894;4.622;2023-02-15T07:40:41;2.00;1.40
38131;DHT22;23947;51.894;4.622;2023-02-15T07:43:06;2.10;1.40
38131;DHT22;23947;51.894;4.622;2023-02-15T07:45:32;2.00;1.40
38131;DHT22;23947;51.894;4.622;2023-02-15T07:47:57;2.10;1.40
38131;DHT22;23947;51.894;4.622;2023-02-15T07:50:25;2.10;1.40
38131;DHT22;23947;51.894;4.622;2023-02-15T07:52:50;2.10;1.40
38131;DHT22;23947;51.894;4.622;2023-02-15T07:55:16;2.20;1.40
38131;DHT22;23947;51.894;4.622;2023-02-15T07:57:42;2.10;1.40
38131;DHT22;23947;51.894;4.622;2023-02-15T08:00:09;2.20;1.40
38131;DHT22;23947;51.894;4.622;2023-02-15T08:02:35;2.20;1.40
38131;DHT22;23947;51.894;4.622;2023-02-15T08:05:02;2.20;1.40
38131;DHT22;23947;51.894;4.622;2023-02-15T08:07:27;2.20;1.40
38131;DHT22;23947;51.894;4.622;2023-02-15T08:09:53;2.30;1.40
38131;DHT22;23947;51.894;4.622;2023-02-15T08:12:19;2.30;1.40
38131;DHT22;23947;51.894;4.622;2023-02-15T08:14:44;2.30;1.40
38131;DHT22;23947;51.894;4.622;2023-02-15T08:17:10;2.40;1.40
38131;DHT22;23947;51.894;4.622;2023-02-15T08:19:35;2.40;1.40
38131;DHT22;23947;51.894;4.622;2023-02-15T08:22:02;2.50;1.40
38131;DHT22;23947;51.894;4.622;2023-02-15T08:24:29;2.60;1.40
38131;DHT22;23947;51.894;4.622;2023-02-15T08:26:55;2.70;1.40
38131;DHT22;23947;51.894;4.622;2023-02-15T08:29:25;2.80;1.40
38131;DHT22;23947;51.894;4.622;2023-02-15T08:31:55;2.80;1.40
38131;DHT22;23947;51.894;4.622;2023-02-15T08:34:23;2.90;1.40
38131;DHT22;23947;51.894;4.622;2023-02-15T08:36:49;2.90;1.40
38131;DHT22;23947;51.894;4.622;2023-02-15T08:39:14;3.00;1.40
38131;DHT22;23947;51.894;4.622;2023-02-15T08:41:42;3.10;1.40
38131;DHT22;23947;51.894;4.622;2023-02-15T08:44:08;3.10;1.40
38131;DHT22;23947;51.894;4.622;2023-02-15T08:46:35;3.20;1.40
38131;DHT22;23947;51.894;4.622;2023-02-15T08:49:00;3.30;1.40
38131;DHT22;23947;51.894;4.622;2023-02-15T08:51:27;3.30;1.40
38131;DHT22;23947;51.894;4.622;2023-02-15T08:53:54;3.40;1.40
38131;DHT22;23947;51.894;4.622;2023-02-15T08:56:21;3.50;1.40
38131;DHT22;23947;51.894;4.622;2023-02-15T08:58:47;3.50;1.40
38131;DHT22;23947;51.894;4.622;2023-02-15T09:01:14;3.60;1.40
38131;DHT22;23947;51.894;4.622;2023-02-15T09:03:43;3.70;1.40
38131;DHT22;23947;51.894;4.622;2023-02-15T09:06:09;3.80;1.40
38131;DHT22;23947;51.894;4.622;2023-02-15T09:08:35;3.80;1.40
38131;DHT22;23947;51.894;4.622;2023-02-15T09:13:34;4.00;1.40
38131;DHT22;23947;51.894;4.622;2023-02-15T09:16:03;4.00;1.40
38131;DHT22;23947;51.894;4.622;2023-02-15T09:18:30;4.10;1.40
38131;DHT22;23947;51.894;4.622;2023-02-15T09:20:56;4.30;1.40
38131;DHT22;23947;51.894;4.622;2023-02-15T09:23:21;4.30;1.40
38131;DHT22;23947;51.894;4.622;2023-02-15T09:25:47;4.40;1.40
38131;DHT22;23947;51.894;4.622;2023-02-15T09:28:12;4.50;1.40
38131;DHT22;23947;51.894;4.622;2023-02-15T09:30:38;4.50;1.40
38131;DHT22;23947;51.894;4.622;2023-02-15T09:33:03;4.60;1.40
38131;DHT22;23947;51.894;4.622;2023-02-15T09:35:29;4.70;1.40
38131;DHT22;23947;51.894;4.622;2023-02-15T09:37:55;4.80;1.40
38131;DHT22;23947;51.894;4.622;2023-02-15T09:40:20;4.80;1.40
38131;DHT22;23947;51.894;4.622;2023-02-15T09:42:52;4.90;1.40
38131;DHT22;23947;51.894;4.622;2023-02-15T09:45:53;5.00;1.40
38131;DHT22;23947;51.894;4.622;2023-02-15T09:50:51;5.20;1.40
38131;DHT22;23947;51.894;4.622;2023-02-15T09:56:02;5.40;1.40
38131;DHT22;23947;51.894;4.622;2023-02-15T10:03:40;5.60;1.40
38131;DHT22;23947;51.894;4.622;2023-02-15T10:16:50;6.10;1.40
38131;DHT22;23947;51.894;4.622;2023-02-15T10:19:56;6.20;1.40
38131;DHT22;23947;51.894;4.622;2023-02-15T10:22:19;6.30;1.40
38131;DHT22;23947;51.894;4.622;2023-02-15T10:27:15;6.40;1.40
38131;DHT22;23947;51.894;4.622;2023-02-15T10:29:47;6.50;1.40
38131;DHT22;23947;51.894;4.622;2023-02-15T10:32:27;6.50;1.40
38131;DHT22;23947;51.894;4.622;2023-02-15T10:37:27;6.70;1.40
38131;DHT22;23947;51.894;4.622;2023-02-15T10:47:22;6.90;1.40
38131;DHT22;23947;51.894;4.622;2023-02-15T10:52:21;7.00;1.40
38131;DHT22;23947;51.894;4.622;2023-02-15T10:57:19;7.20;1.40
38131;DHT22;23947;51.894;4.622;2023-02-15T11:07:15;7.50;1.40
38131;DHT22;23947;51.894;4.622;2023-02-15T11:09:43;7.50;1.40
38131;DHT22;23947;51.894;4.622;2023-02-15T11:12:14;7.60;1.40
38131;DHT22;23947;51.894;4.622;2023-02-15T11:17:21;7.80;1.40
38131;DHT22;23947;51.894;4.622;2023-02-15T11:19:51;7.90;1.40
38131;DHT22;23947;51.894;4.622;2023-02-15T11:22:19;8.00;1.40
38131;DHT22;23947;51.894;4.622;2023-02-15T11:24:44;8.10;1.40
38131;DHT22;23947;51.894;4.622;2023-02-15T11:27:24;8.20;1.40
38131;DHT22;23947;51.894;4.622;2023-02-15T11:29:58;8.30;1.40
38131;DHT22;23947;51.894;4.622;2023-02-15T11:32:43;8.40;1.40
38131;DHT22;23947;51.894;4.622;2023-02-15T11:37:48;8.60;1.40
38131;DHT22;23947;51.894;4.622;2023-02-15T11:40:17;8.70;1.40
38131;DHT22;23947;51.894;4.622;2023-02-15T11:42:45;8.80;1.40
38131;DHT22;23947;51.894;4.622;2023-02-15T11:47:42;9.00;1.40
38131;DHT22;23947;51.894;4.622;2023-02-15T11:50:14;9.00;1.40
38131;DHT22;23947;51.894;4.622;2023-02-15T11:52:40;9.00;1.40
38131;DHT22;23947;51.894;4.622;2023-02-15T11:55:09;9.10;1.40
38131;DHT22;23947;51.894;4.622;2023-02-15T11:57:39;9.20;1.40
38131;DHT22;23947;51.894;4.622;2023-02-15T12:02:35;9.20;1.40
38131;DHT22;23947;51.894;4.622;2023-02-15T12:05:12;9.30;1.40
38131;DHT22;23947;51.894;4.622;2023-02-15T12:07:52;9.40;1.40
38131;DHT22;23947;51.894;4.622;2023-02-15T12:10:22;9.40;1.40
38131;DHT22;23947;51.894;4.622;2023-02-15T12:13:08;9.50;1.40
38131;DHT22;23947;51.894;4.622;2023-02-15T12:15:33;9.60;1.40
38131;DHT22;23947;51.894;4.622;2023-02-15T12:18:00;9.60;1.40
38131;DHT22;23947;51.894;4.622;2023-02-15T12:20:30;9.70;1.40
38131;DHT22;23947;51.894;4.622;2023-02-15T12:23:00;9.80;1.40
38131;DHT22;23947;51.894;4.622;2023-02-15T12:25:37;10.00;1.40
38131;DHT22;23947;51.894;4.622;2023-02-15T12:28:15;10.30;1.40
38131;DHT22;23947;51.894;4.622;2023-02-15T12:30:43;10.90;1.40
38131;DHT22;23947;51.894;4.622;2023-02-15T12:36:12;11.70;1.40
38131;DHT22;23947;51.894;4.622;2023-02-15T12:38:40;11.80;1.40
38131;DHT22;23947;51.894;4.622;2023-02-15T12:41:22;11.90;1.40
38131;DHT22;23947;51.894;4.622;2023-02-15T12:43:48;11.90;1.40
38131;DHT22;23947;51.894;4.622;2023-02-15T12:46:27;11.90;1.40
38131;DHT22;23947;51.894;4.622;2023-02-15T12:49:16;12.00;1.40
38131;DHT22;23947;51.894;4.622;2023-02-15T12:51:42;11.90;1.40
38131;DHT22;23947;51.894;4.622;2023-02-15T12:56:52;12.00;1.40
38131;DHT22;23947;51.894;4.622;2023-02-15T12:59:18;12.00;1.40
38131;DHT22;23947;51.894;4.622;2023-02-15T13:01:45;12.10;1.40
38131;DHT22;23947;51.894;4.622;2023-02-15T13:06:45;12.30;1.40
38131;DHT22;23947;51.894;4.622;2023-02-15T13:09:14;12.50;1.40
38131;DHT22;23947;51.894;4.622;2023-02-15T13:11:40;12.50;1.40
38131;DHT22;23947;51.894;4.622;2023-02-15T13:14:17;12.60;1.40
38131;DHT22;23947;51.894;4.622;2023-02-15T13:16:44;12.60;1.40
38131;DHT22;23947;51.894;4.622;2023-02-15T13:19:17;12.50;1.40
38131;DHT22;23947;51.894;4.622;2023-02-15T13:21:44;12.50;1.40
38131;DHT22;23947;51.894;4.622;2023-02-15T13:24:23;12.30;1.40
38131;DHT22;23947;51.894;4.622;2023-02-15T13:26:50;12.00;1.40
38131;DHT22;23947;51.894;4.622;2023-02-15T13:32:10;11.50;1.40
38131;DHT22;23947;51.894;4.622;2023-02-15T13:34:46;11.40;1.40
38131;DHT22;23947;51.894;4.622;2023-02-15T13:37:17;11.20;1.40
38131;DHT22;23947;51.894;4.622;2023-02-15T13:39:46;11.00;1.40
38131;DHT22;23947;51.894;4.622;2023-02-15T13:42:14;11.00;1.40
38131;DHT22;23947;51.894;4.622;2023-02-15T13:47:26;10.90;1.40
38131;DHT22;23947;51.894;4.622;2023-02-15T13:50:08;10.90;1.40
38131;DHT22;23947;51.894;4.622;2023-02-15T13:52:46;10.80;1.40
38131;DHT22;23947;51.894;4.622;2023-02-15T14:15:44;10.60;1.40
38131;DHT22;23947;51.894;4.622;2023-02-15T14:18:55;10.60;1.40
38131;DHT22;23947;51.894;4.622;2023-02-15T14:26:08;10.70;1.40
38131;DHT22;23947;51.894;4.622;2023-02-15T14:28:47;10.70;1.40
38131;DHT22;23947;51.894;4.622;2023-02-15T14:31:16;10.90;1.40
38131;DHT22;23947;51.894;4.622;2023-02-15T14:33:55;10.90;1.40
38131;DHT22;23947;51.894;4.622;2023-02-15T14:36:21;10.90;1.40
38131;DHT22;23947;51.894;4.622;2023-02-15T14:46:58;10.90;1.40
38131;DHT22;23947;51.894;4.622;2023-02-15T14:49:27;10.80;1.40
38131;DHT22;23947;51.894;4.622;2023-02-15T14:51:56;10.70;1.40
38131;DHT22;23947;51.894;4.622;2023-02-15T14:59:40;10.60;1.40
38131;DHT22;23947;51.894;4.622;2023-02-15T15:04:43;10.50;1.40
38131;DHT22;23947;51.894;4.622;2023-02-15T15:07:26;10.50;1.40
38131;DHT22;23947;51.894;4.622;2023-02-15T15:14:50;10.40;1.40
38131;DHT22;23947;51.894;4.622;2023-02-15T15:22:27;10.30;1.40
38131;DHT22;23947;51.894;4.622;2023-02-15T15:50:47;10.20;1.40
38131;DHT22;23947;51.894;4.622;2023-02-15T15:53:20;10.10;1.40
38131;DHT22;23947;51.894;4.622;2023-02-15T15:55:48;10.10;1.40
38131;DHT22;23947;51.894;4.622;2023-02-15T15:58:15;10.10;1.40
38131;DHT22;23947;51.894;4.622;2023-02-15T16:00:46;10.10;1.40
38131;DHT22;23947;51.894;4.622;2023-02-15T16:03:15;10.00;1.40
38131;DHT22;23947;51.894;4.622;2023-02-15T16:05:41;10.00;1.40
38131;DHT22;23947;51.894;4.622;2023-02-15T16:08:07;10.00;1.40
38131;DHT22;23947;51.894;4.622;2023-02-15T16:10:32;9.90;1.40
38131;DHT22;23947;51.894;4.622;2023-02-15T16:12:59;9.80;1.40
38131;DHT22;23947;51.894;4.622;2023-02-15T16:15:29;9.80;1.40
38131;DHT22;23947;51.894;4.622;2023-02-15T16:17:57;9.80;1.40
38131;DHT22;23947;51.894;4.622;2023-02-15T16:20:26;9.70;1.40
38131;DHT22;23947;51.894;4.622;2023-02-15T16:25:31;9.80;1.40
38131;DHT22;23947;51.894;4.622;2023-02-15T16:28:33;9.90;1.40
38131;DHT22;23947;51.894;4.622;2023-02-15T16:31:25;9.90;1.40
38131;DHT22;23947;51.894;4.622;2023-02-15T16:33:44;9.90;1.40
38131;DHT22;23947;51.894;4.622;2023-02-15T16:36:26;9.80;1.40
38131;DHT22;23947;51.894;4.622;2023-02-15T16:41:21;9.60;1.40
38131;DHT22;23947;51.894;4.622;2023-02-15T16:43:48;9.60;1.40
38131;DHT22;23947;51.894;4.622;2023-02-15T16:46:23;9.40;1.40
38131;DHT22;23947;51.894;4.622;2023-02-15T16:48:50;9.40;1.40
38131;DHT22;23947;51.894;4.622;2023-02-15T16:51:22;9.30;1.40
38131;DHT22;23947;51.894;4.622;2023-02-15T16:53:48;9.30;1.40
38131;DHT22;23947;51.894;4.622;2023-02-15T16:56:14;9.20;1.40
38131;DHT22;23947;51.894;4.622;2023-02-15T16:58:42;9.10;1.40
38131;DHT22;23947;51.894;4.622;2023-02-15T17:01:09;9.10;1.40
38131;DHT22;23947;51.894;4.622;2023-02-15T17:03:35;9.10;1.40
38131;DHT22;23947;51.894;4.622;2023-02-15T17:06:01;9.00;1.40
38131;DHT22;23947;51.894;4.622;2023-02-15T17:08:34;9.00;1.40
38131;DHT22;23947;51.894;4.622;2023-02-15T17:13:28;8.90;1.40
38131;DHT22;23947;51.894;4.622;2023-02-15T17:17:31;8.90;1.40
38131;DHT22;23947;51.894;4.622;2023-02-15T17:19:57;8.90;1.40
38131;DHT22;23947;51.894;4.622;2023-02-15T17:22:25;8.90;1.40
38131;DHT22;23947;51.894;4.622;2023-02-15T17:24:59;8.80;1.40
38131;DHT22;23947;51.894;4.622;2023-02-15T17:27:29;8.80;1.40
38131;DHT22;23947;51.894;4.622;2023-02-15T17:30:01;8.80;1.40
38131;DHT22;23947;51.894;4.622;2023-02-15T17:32:30;8.80;1.40
38131;DHT22;23947;51.894;4.622;2023-02-15T17:40:23;8.80;1.40
38131;DHT22;23947;51.894;4.622;2023-02-15T17:42:49;8.80;1.40
38131;DHT22;23947;51.894;4.622;2023-02-15T17:45:17;8.80;1.40
38131;DHT22;23947;51.894;4.622;2023-02-15T17:47:45;8.80;1.40
38131;DHT22;23947;51.894;4.622;2023-02-15T17:50:21;8.70;1.40
38131;DHT22;23947;51.894;4.622;2023-02-15T17:52:47;8.70;1.40
38131;DHT22;23947;51.894;4.622;2023-02-15T17:55:15;8.70;1.40
38131;DHT22;23947;51.894;4.622;2023-02-15T17:58:01;8.70;1.40
38131;DHT22;23947;51.894;4.622;2023-02-15T18:00:27;8.70;1.40
38131;DHT22;23947;51.894;4.622;2023-02-15T18:03:12;8.60;1.40
38131;DHT22;23947;51.894;4.622;2023-02-15T18:05:57;8.60;1.40
38131;DHT22;23947;51.894;4.622;2023-02-15T18:08:42;8.60;1.40
38131;DHT22;23947;51.894;4.622;2023-02-15T18:11:26;8.60;1.40
38131;DHT22;23947;51.894;4.622;2023-02-15T18:14:08;8.60;1.40
38131;DHT22;23947;51.894;4.622;2023-02-15T18:16:37;8.60;1.40
38131;DHT22;23947;51.894;4.622;2023-02-15T18:19:05;8.60;1.40
38131;DHT22;23947;51.894;4.622;2023-02-15T18:21:34;8.50;1.40
38131;DHT22;23947;51.894;4.622;2023-02-15T18:24:00;8.50;1.40
38131;DHT22;23947;51.894;4.622;2023-02-15T18:26:26;8.50;1.40
38131;DHT22;23947;51.894;4.622;2023-02-15T18:28:53;8.40;1.40
38131;DHT22;23947;51.894;4.622;2023-02-15T18:31:20;8.40;1.40
38131;DHT22;23947;51.894;4.622;2023-02-15T18:33:54;8.30;1.40
38131;DHT22;23947;51.894;4.622;2023-02-15T18:36:43;8.30;1.40
38131;DHT22;23947;51.894;4.622;2023-02-15T18:39:36;8.20;1.40
38131;DHT22;23947;51.894;4.622;2023-02-15T18:45:09;8.20;1.40
38131;DHT22;23947;51.894;4.622;2023-02-15T18:47:38;8.20;1.40
38131;DHT22;23947;51.894;4.622;2023-02-15T18:50:05;8.20;1.40
38131;DHT22;23947;51.894;4.622;2023-02-15T18:52:33;8.20;1.40
38131;DHT22;23947;51.894;4.622;2023-02-15T18:55:02;8.20;1.40
38131;DHT22;23947;51.894;4.622;2023-02-15T18:57:31;8.20;1.40
38131;DHT22;23947;51.894;4.622;2023-02-15T18:59:57;8.10;1.40
38131;DHT22;23947;51.894;4.622;2023-02-15T19:02:25;8.10;1.40
38131;DHT22;23947;51.894;4.622;2023-02-15T19:05:12;8.00;1.40
38131;DHT22;23947;51.894;4.622;2023-02-15T19:07:39;8.00;1.40
38131;DHT22;23947;51.894;4.622;2023-02-15T19:10:07;8.00;1.40
38131;DHT22;23947;51.894;4.622;2023-02-15T19:12:44;8.00;1.40
38131;DHT22;23947;51.894;4.622;2023-02-15T19:15:16;8.00;1.40
38131;DHT22;23947;51.894;4.622;2023-02-15T19:17:42;8.00;1.40
38131;DHT22;23947;51.894;4.622;2023-02-15T19:20:14;8.00;1.40
38131;DHT22;23947;51.894;4.622;2023-02-15T19:22:40;8.00;1.40
38131;DHT22;23947;51.894;4.622;2023-02-15T19:25:06;7.90;1.40
38131;DHT22;23947;51.894;4.622;2023-02-15T19:27:34;7.90;1.40
38131;DHT22;23947;51.894;4.622;2023-02-15T19:30:03;7.90;1.40
38131;DHT22;23947;51.894;4.622;2023-02-15T19:32:29;7.90;1.40
38131;DHT22;23947;51.894;4.622;2023-02-15T19:34:56;7.90;1.40
38131;DHT22;23947;51.894;4.622;2023-02-15T19:37:37;7.90;1.40
38131;DHT22;23947;51.894;4.622;2023-02-15T19:40:06;7.80;1.40
38131;DHT22;23947;51.894;4.622;2023-02-15T19:42:40;7.80;1.40